Time;durP1;ratioP1;P1;durP2;ratioP2;P2;SDS_P1;SDS_P2;PMS_P1;PMS_P2;Temp;Humidity;BMP_temperature;BMP_pressure;BME280_temperature;BME280_humidity;BME280_pressure;Samples;Min_cycle;Max_cycle;Signal;HPM_P1;HPM_P2
2022/04/06 00:01:43;;;;;;;7.90;5.15;;;;;;;;;;5050331;28;20048;-75
2022/04/06 00:04:09;;;;;;;9.75;5.82;;;;;;;;;;5051688;28;20036;-75
2022/04/06 00:06:35;;;;;;;9.20;6.03;;;;;;;;;;5051887;28;20474;-75
2022/04/06 00:09:02;;;;;;;9.07;6.15;;;;;;;;;;5051689;28;20033;-74
2022/04/06 00:11:28;;;;;;;10.93;6.50;;;;;;;;;;5051954;28;20032;-75
2022/04/06 00:13:54;;;;;;;9.85;6.63;;;;;;;;;;5051718;28;20025;-75
2022/04/06 00:16:20;;;;;;;12.05;7.10;;;;;;;;;;5051799;28;20573;-76
2022/04/06 00:18:46;;;;;;;12.80;7.63;;;;;;;;;;5051786;28;20053;-75
2022/04/06 00:21:12;;;;;;;12.88;7.90;;;;;;;;;;5051865;28;20044;-75
2022/04/06 00:23:39;;;;;;;13.13;7.75;;;;;;;;;;5051862;28;20366;-75
2022/04/06 00:26:05;;;;;;;11.88;7.82;;;;;;;;;;5051648;28;20033;-74
2022/04/06 00:28:31;;;;;;;11.32;7.40;;;;;;;;;;5051510;28;20029;-76
2022/04/06 00:30:57;;;;;;;12.27;7.53;;;;;;;;;;5051655;28;20024;-76
2022/04/06 00:33:23;;;;;;;13.95;8.30;;;;;;;;;;5051609;28;20025;-73
2022/04/06 00:35:50;;;;;;;13.63;8.18;;;;;;;;;;5033060;28;20076;-74
2022/04/06 00:38:16;;;;;;;13.65;8.70;;;;;;;;;;5051280;28;20038;-75
2022/04/06 00:40:42;;;;;;;13.32;7.93;;;;;;;;;;5030199;28;20040;-75
2022/04/06 00:43:12;;;;;;;14.55;8.00;;;;;;;;;;5027960;28;20064;-75
2022/04/06 00:45:39;;;;;;;14.82;8.07;;;;;;;;;;5030124;28;20033;-75
2022/04/06 00:48:06;;;;;;;12.82;8.07;;;;;;;;;;5031032;28;20021;-74
2022/04/06 00:50:33;;;;;;;13.07;7.82;;;;;;;;;;5029078;28;20050;-74
2022/04/06 00:52:59;;;;;;;13.77;8.23;;;;;;;;;;5029649;28;20566;-75
2022/04/06 00:55:32;;;;;;;14.25;8.15;;;;;;;;;;5030404;28;20033;-75
2022/04/06 00:57:58;;;;;;;12.98;7.82;;;;;;;;;;5031129;28;20029;-74
2022/04/06 01:00:25;;;;;;;13.23;8.35;;;;;;;;;;5031207;28;20026;-75
2022/04/06 01:02:51;;;;;;;14.55;8.68;;;;;;;;;;5031029;28;20041;-73
2022/04/06 01:05:17;;;;;;;12.75;8.10;;;;;;;;;;5031018;28;20049;-73
2022/04/06 01:07:48;;;;;;;14.02;8.18;;;;;;;;;;5030970;28;20474;-75
2022/04/06 01:10:14;;;;;;;;;;;;;;;;;;5013053;28;20048;-75
2022/04/06 01:12:40;;;;;;;13.23;8.02;;;;;;;;;;5030992;28;19955;-75
2022/04/06 01:15:07;;;;;;;13.57;8.27;;;;;;;;;;5030645;28;20049;-75
2022/04/06 01:17:36;;;;;;;15.50;8.80;;;;;;;;;;5013070;28;20045;-75
2022/04/06 01:20:05;;;;;;;15.27;8.90;;;;;;;;;;5035413;28;20037;-75
2022/04/06 01:22:31;;;;;;;14.30;9.00;;;;;;;;;;5012429;28;20129;-75
2022/04/06 01:24:57;;;;;;;16.05;9.40;;;;;;;;;;5030422;28;20032;-75
2022/04/06 01:27:23;;;;;;;16.13;9.55;;;;;;;;;;5030510;28;20420;-74
2022/04/06 01:29:52;;;;;;;15.23;9.60;;;;;;;;;;5030429;28;20653;-75
2022/04/06 01:32:19;;;;;;;14.00;9.20;;;;;;;;;;5030446;28;20029;-75
2022/04/06 01:34:45;;;;;;;14.98;9.73;;;;;;;;;;5030214;28;20029;-75
2022/04/06 01:37:13;;;;;;;14.70;9.60;;;;;;;;;;5030217;28;20036;-76
2022/04/06 01:39:40;;;;;;;14.38;9.65;;;;;;;;;;5040993;28;20017;-75
2022/04/06 01:42:07;;;;;;;15.30;9.60;;;;;;;;;;5050076;28;20029;-73
2022/04/06 01:44:33;;;;;;;13.02;8.82;;;;;;;;;;5049810;28;20040;-76
2022/04/06 01:47:01;;;;;;;14.82;9.43;;;;;;;;;;5049939;28;20111;-75
2022/04/06 01:52:14;;;;;;;13.23;8.93;;;;;;;;;;5049983;28;20033;-75
2022/04/06 01:54:45;;;;;;;16.70;9.57;;;;;;;;;;5049872;28;20036;-74
2022/04/06 01:57:12;;;;;;;14.13;9.20;;;;;;;;;;5049878;28;20032;-75
2022/04/06 01:59:38;;;;;;;16.98;9.07;;;;;;;;;;5049788;28;20427;-75
2022/04/06 02:02:04;;;;;;;13.23;8.93;;;;;;;;;;5048932;28;20481;-75
2022/04/06 02:04:31;;;;;;;14.23;9.60;;;;;;;;;;5049947;28;20531;-75
2022/04/06 02:06:57;;;;;;;13.95;9.07;;;;;;;;;;5049192;28;20401;-74
2022/04/06 02:09:23;;;;;;;12.52;8.68;;;;;;;;;;5049471;28;20028;-75
2022/04/06 02:11:50;;;;;;;12.48;8.93;;;;;;;;;;5049618;28;20035;-75
2022/04/06 02:14:16;;;;;;;12.80;8.65;;;;;;;;;;5049574;28;20036;-74
2022/04/06 02:16:43;;;;;;;16.90;9.48;;;;;;;;;;5049620;28;20136;-73
2022/04/06 02:19:09;;;;;;;13.88;8.77;;;;;;;;;;5028546;28;20013;-75
2022/04/06 02:21:35;;;;;;;14.32;9.27;;;;;;;;;;5029554;28;20032;-75
2022/04/06 02:24:02;;;;;;;15.60;9.23;;;;;;;;;;5029590;28;20033;-75
2022/04/06 02:26:28;;;;;;;13.30;8.95;;;;;;;;;;5029455;28;20033;-73
2022/04/06 02:28:55;;;;;;;15.20;8.77;;;;;;;;;;5029515;28;20537;-74
2022/04/06 02:31:22;;;;;;;13.25;8.52;;;;;;;;;;5011476;28;20041;-73
2022/04/06 02:33:47;;;;;;;14.65;8.73;;;;;;;;;;5029346;28;20486;-74
2022/04/06 02:36:13;;;;;;;12.35;8.40;;;;;;;;;;5028776;28;20044;-74
2022/04/06 02:38:39;;;;;;;16.60;8.30;;;;;;;;;;5030818;28;20045;-73
2022/04/06 02:41:06;;;;;;;13.90;8.38;;;;;;;;;;5048944;28;20086;-74
2022/04/06 02:43:32;;;;;;;14.30;7.97;;;;;;;;;;5030624;28;20617;-73
2022/04/06 02:45:58;;;;;;;12.55;8.10;;;;;;;;;;5031746;28;20037;-74
2022/04/06 02:48:24;;;;;;;13.93;8.32;;;;;;;;;;5027912;28;20724;-74
2022/04/06 02:50:50;;;;;;;11.43;7.47;;;;;;;;;;5028460;28;20435;-74
2022/04/06 02:53:16;;;;;;;12.70;7.93;;;;;;;;;;5029297;28;20025;-74
2022/04/06 02:55:42;;;;;;;12.57;8.13;;;;;;;;;;5029466;28;20581;-75
2022/04/06 02:58:08;;;;;;;12.23;7.90;;;;;;;;;;5029336;28;20045;-75
2022/04/06 03:00:34;;;;;;;12.82;8.20;;;;;;;;;;5029726;28;20043;-75
2022/04/06 03:02:59;;;;;;;12.30;7.95;;;;;;;;;;5029514;28;20128;-74
2022/04/06 03:05:25;;;;;;;14.05;7.93;;;;;;;;;;5029405;28;20052;-75
2022/04/06 03:07:51;;;;;;;11.65;7.47;;;;;;;;;;5029226;28;20049;-74
2022/04/06 03:10:17;;;;;;;13.52;8.27;;;;;;;;;;5029448;28;20025;-75
2022/04/06 03:12:43;;;;;;;14.07;8.60;;;;;;;;;;5012372;28;20075;-74
2022/04/06 03:15:09;;;;;;;13.32;8.07;;;;;;;;;;5034141;28;20474;-75
2022/04/06 03:17:36;;;;;;;13.40;8.25;;;;;;;;;;5030995;28;20494;-74
2022/04/06 03:20:05;;;;;;;12.63;7.82;;;;;;;;;;5032998;28;20029;-74
2022/04/06 03:22:31;;;;;;;11.48;7.80;;;;;;;;;;5034496;28;20051;-74
2022/04/06 03:24:57;;;;;;;12.18;7.80;;;;;;;;;;5033617;28;20040;-74
2022/04/06 03:27:23;;;;;;;10.88;7.47;;;;;;;;;;5014602;28;20141;-75
2022/04/06 03:29:48;;;;;;;12.15;7.20;;;;;;;;;;5032834;28;20088;-75
2022/04/06 03:32:15;;;;;;;11.13;7.22;;;;;;;;;;5033093;28;20691;-75
2022/04/06 03:34:41;;;;;;;11.80;8.00;;;;;;;;;;5032776;28;20064;-74
2022/04/06 03:37:07;;;;;;;14.18;7.90;;;;;;;;;;5032750;28;20659;-75
2022/04/06 03:39:33;;;;;;;11.57;7.18;;;;;;;;;;5042657;28;20549;-74
2022/04/06 03:42:01;;;;;;;16.13;7.40;;;;;;;;;;5034267;28;20529;-74
2022/04/06 03:44:27;;;;;;;13.23;7.35;;;;;;;;;;5052619;28;20025;-73
2022/04/06 03:46:53;;;;;;;12.38;6.88;;;;;;;;;;5052413;28;20067;-75
2022/04/06 03:49:19;;;;;;;13.82;6.95;;;;;;;;;;5052383;28;20061;-75
2022/04/06 03:51:45;;;;;;;10.60;6.55;;;;;;;;;;5052352;28;20432;-74
2022/04/06 03:54:14;;;;;;;11.52;6.65;;;;;;;;;;5052589;28;20027;-74
2022/04/06 03:56:40;;;;;;;12.68;6.78;;;;;;;;;;5033931;28;20040;-73
2022/04/06 03:59:06;;;;;;;10.07;6.20;;;;;;;;;;5052223;28;20028;-75
2022/04/06 04:01:35;;;;;;;10.73;5.97;;;;;;;;;;5052131;28;20028;-75
2022/04/06 04:04:02;;;;;;;12.68;6.47;;;;;;;;;;5052485;28;20021;-75
2022/04/06 04:06:27;;;;;;;11.43;6.50;;;;;;;;;;5051867;28;20497;-74
2022/04/06 04:08:53;;;;;;;10.00;5.90;;;;;;;;;;5051874;28;20064;-74
2022/04/06 04:11:19;;;;;;;11.65;5.97;;;;;;;;;;5051921;28;20429;-74
2022/04/06 04:13:45;;;;;;;12.05;6.10;;;;;;;;;;5051974;28;20056;-74
2022/04/06 04:16:11;;;;;;;16.20;5.90;;;;;;;;;;5041968;28;20040;-74
2022/04/06 04:18:37;;;;;;;13.05;6.18;;;;;;;;;;5030763;28;20057;-75
2022/04/06 04:23:47;;;;;;;11.35;5.57;;;;;;;;;;5030920;28;20394;-74
2022/04/06 04:26:13;;;;;;;11.75;5.25;;;;;;;;;;5011832;28;20065;-74
2022/04/06 04:28:38;;;;;;;19.00;11.18;;;;;;;;;;5031005;28;20075;-73
2022/04/06 04:31:04;;;;;;;14.00;7.80;;;;;;;;;;5030818;28;20056;-75
2022/04/06 04:33:31;;;;;;;15.10;7.97;;;;;;;;;;5030979;28;20079;-74
2022/04/06 04:35:58;;;;;;;18.40;8.60;;;;;;;;;;5031348;28;20538;-73
2022/04/06 04:38:23;;;;;;;14.60;6.22;;;;;;;;;;5031907;28;20037;-73
2022/04/06 04:40:49;;;;;;;16.42;9.23;;;;;;;;;;5051096;28;20442;-73
2022/04/06 04:43:15;;;;;;;12.73;5.22;;;;;;;;;;5038401;28;20026;-73
2022/04/06 04:45:41;;;;;;;11.93;5.47;;;;;;;;;;5031005;28;20395;-74
2022/04/06 04:48:07;;;;;;;15.00;5.53;;;;;;;;;;5013076;28;20152;-74
2022/04/06 04:50:33;;;;;;;12.52;5.53;;;;;;;;;;5033506;28;20084;-74
2022/04/06 04:52:59;;;;;;;11.02;5.60;;;;;;;;;;5031083;28;20057;-73
2022/04/06 04:55:24;;;;;;;13.25;5.40;;;;;;;;;;5012549;28;20068;-73
2022/04/06 04:57:50;;;;;;;12.38;5.20;;;;;;;;;;5030338;28;20570;-73
2022/04/06 05:00:16;;;;;;;11.15;5.28;;;;;;;;;;5012302;28;20057;-74
2022/04/06 05:02:42;;;;;;;13.95;5.25;;;;;;;;;;5030728;28;20025;-74
2022/04/06 05:05:10;;;;;;;12.55;5.50;;;;;;;;;;5029288;28;20258;-74
2022/04/06 05:07:37;;;;;;;15.55;5.95;;;;;;;;;;5014926;28;20033;-74
2022/04/06 05:10:07;;;;;;;17.08;9.40;;;;;;;;;;5029472;28;20029;-75
2022/04/06 05:12:34;;;;;;;17.88;10.13;;;;;;;;;;5029827;28;20037;-74
2022/04/06 05:15:00;;;;;;;15.60;8.60;;;;;;;;;;5029686;28;20407;-74
2022/04/06 05:17:27;;;;;;;12.70;6.05;;;;;;;;;;5028234;28;20037;-74
2022/04/06 05:19:53;;;;;;;12.15;5.38;;;;;;;;;;5028487;28;20037;-74
2022/04/06 05:22:20;;;;;;;13.85;5.70;;;;;;;;;;5030767;28;20033;-75
2022/04/06 05:24:46;;;;;;;10.80;5.50;;;;;;;;;;5030250;28;20048;-75
2022/04/06 05:27:12;;;;;;;12.27;5.60;;;;;;;;;;5017127;28;20037;-74
2022/04/06 05:29:38;;;;;;;12.65;5.85;;;;;;;;;;5027138;28;20045;-74
2022/04/06 05:32:04;;;;;;;15.05;6.13;;;;;;;;;;5029488;28;20124;-75
2022/04/06 05:34:30;;;;;;;11.52;5.57;;;;;;;;;;5022161;28;20041;-74
2022/04/06 05:36:56;;;;;;;12.88;5.93;;;;;;;;;;5011789;28;20037;-74
2022/04/06 05:39:22;;;;;;;11.65;5.50;;;;;;;;;;5038298;28;20391;-73
2022/04/06 05:41:49;;;;;;;23.55;12.23;;;;;;;;;;5033011;28;20038;-76
2022/04/06 05:44:16;;;;;;;39.55;23.17;;;;;;;;;;5029805;28;20418;-75
2022/04/06 05:46:42;;;;;;;16.20;7.28;;;;;;;;;;5011820;28;20041;-74
2022/04/06 05:49:08;;;;;;;14.55;4.97;;;;;;;;;;5029859;28;20025;-73
2022/04/06 05:51:34;;;;;;;14.10;5.68;;;;;;;;;;5030168;28;20033;-75
2022/04/06 05:54:02;;;;;;;10.27;5.43;;;;;;;;;;5012096;28;20045;-76
2022/04/06 05:56:32;;;;;;;11.75;5.30;;;;;;;;;;5030082;28;20108;-76
2022/04/06 05:58:57;;;;;;;12.65;5.25;;;;;;;;;;5030320;28;20029;-75
2022/04/06 06:01:24;;;;;;;13.25;5.50;;;;;;;;;;5030188;28;20056;-75
2022/04/06 06:03:50;;;;;;;13.68;5.22;;;;;;;;;;5012117;28;20037;-75
2022/04/06 06:06:15;;;;;;;11.90;5.22;;;;;;;;;;5030119;28;20033;-75
2022/04/06 06:08:41;;;;;;;12.98;5.15;;;;;;;;;;5030199;28;20033;-75
2022/04/06 06:11:08;;;;;;;10.73;5.05;;;;;;;;;;5011910;28;20041;-74
2022/04/06 06:13:34;;;;;;;10.95;4.53;;;;;;;;;;5029759;28;20033;-76
2022/04/06 06:16:00;;;;;;;13.02;4.28;;;;;;;;;;5017564;28;20041;-73
2022/04/06 06:18:27;;;;;;;10.82;4.00;;;;;;;;;;5029587;28;20046;-74
2022/04/06 06:20:56;;;;;;;10.70;4.40;;;;;;;;;;5018448;28;20068;-73
2022/04/06 06:23:22;;;;;;;13.77;3.75;;;;;;;;;;5029475;28;20033;-75
2022/04/06 06:25:50;;;;;;;9.27;3.60;;;;;;;;;;5029645;28;20305;-74
2022/04/06 06:28:16;;;;;;;16.35;8.35;;;;;;;;;;5029358;28;20028;-74
2022/04/06 06:30:42;;;;;;;16.05;5.35;;;;;;;;;;5028938;28;20057;-74
2022/04/06 06:33:08;;;;;;;11.50;4.95;;;;;;;;;;5018620;28;20046;-75
2022/04/06 06:35:34;;;;;;;8.60;3.20;;;;;;;;;;5029646;28;20049;-75
2022/04/06 06:38:00;;;;;;;9.05;3.15;;;;;;;;;;5011344;28;20478;-74
2022/04/06 06:40:27;;;;;;;7.45;3.05;;;;;;;;;;5040716;28;20032;-73
2022/04/06 06:42:53;;;;;;;5.78;3.00;;;;;;;;;;5029380;28;20029;-75
2022/04/06 06:45:19;;;;;;;9.15;2.88;;;;;;;;;;5029067;28;20068;-74
2022/04/06 06:47:46;;;;;;;8.27;3.50;;;;;;;;;;5030287;28;20033;-74
2022/04/06 06:50:15;;;;;;;8.73;3.20;;;;;;;;;;5017161;28;20029;-74
2022/04/06 06:52:44;;;;;;;7.35;2.80;;;;;;;;;;5035767;28;20021;-74
2022/04/06 06:55:10;;;;;;;11.52;3.55;;;;;;;;;;5032988;28;20030;-74
2022/04/06 06:57:36;;;;;;;9.32;3.60;;;;;;;;;;5032918;28;20104;-74
2022/04/06 07:00:04;;;;;;;10.15;3.95;;;;;;;;;;5033145;28;20394;-75
2022/04/06 07:02:30;;;;;;;10.50;3.45;;;;;;;;;;5043137;28;20026;-73
2022/04/06 07:04:56;;;;;;;9.95;3.50;;;;;;;;;;5032902;28;20100;-75
2022/04/06 07:07:22;;;;;;;10.32;3.60;;;;;;;;;;5032832;28;20060;-74
2022/04/06 07:09:48;;;;;;;10.82;3.60;;;;;;;;;;5032712;28;20026;-75
2022/04/06 07:12:13;;;;;;;8.05;3.50;;;;;;;;;;5032613;28;20097;-75
2022/04/06 07:14:39;;;;;;;7.72;3.33;;;;;;;;;;5032850;28;20062;-75
2022/04/06 07:17:06;;;;;;;16.50;7.38;;;;;;;;;;5033048;28;20067;-74
2022/04/06 07:19:31;;;;;;;11.02;4.43;;;;;;;;;;5032236;28;20332;-73
2022/04/06 07:21:57;;;;;;;12.15;4.50;;;;;;;;;;5032889;28;20121;-74
2022/04/06 07:24:23;;;;;;;8.25;3.90;;;;;;;;;;5032793;28;20053;-74
2022/04/06 07:26:49;;;;;;;10.77;4.40;;;;;;;;;;5032827;28;20049;-74
2022/04/06 07:29:15;;;;;;;9.43;3.67;;;;;;;;;;5032953;28;20049;-75
2022/04/06 07:31:42;;;;;;;9.10;3.97;;;;;;;;;;5040258;28;20183;-74
2022/04/06 07:34:09;;;;;;;11.63;4.10;;;;;;;;;;5045099;28;20044;-74
2022/04/06 07:36:35;;;;;;;11.57;4.65;;;;;;;;;;5051903;28;20029;-76
2022/04/06 07:39:03;;;;;;;10.63;3.50;;;;;;;;;;5039212;28;20037;-75
2022/04/06 07:41:30;;;;;;;13.60;4.43;;;;;;;;;;5047480;28;20029;-74
2022/04/06 07:43:55;;;;;;;10.02;4.00;;;;;;;;;;5045260;28;20044;-75
2022/04/06 07:46:21;;;;;;;13.00;4.18;;;;;;;;;;5045093;28;20021;-74
2022/04/06 07:48:47;;;;;;;11.30;3.80;;;;;;;;;;5046085;28;20055;-74
2022/04/06 07:51:13;;;;;;;8.85;3.35;;;;;;;;;;5043420;28;20056;-76
2022/04/06 07:53:41;;;;;;;18.48;9.20;;;;;;;;;;5046205;28;20506;-76
2022/04/06 07:56:07;;;;;;;13.07;6.00;;;;;;;;;;5020114;28;20041;-74
2022/04/06 07:58:34;;;;;;;14.10;4.25;;;;;;;;;;5033780;28;20033;-75
2022/04/06 08:01:02;;;;;;;8.30;3.50;;;;;;;;;;5035221;28;20032;-74
2022/04/06 08:03:29;;;;;;;12.88;4.10;;;;;;;;;;5017802;28;20049;-74
2022/04/06 08:05:57;;;;;;;8.88;3.65;;;;;;;;;;5038389;28;20429;-74
2022/04/06 08:08:23;;;;;;;13.60;3.90;;;;;;;;;;5036664;28;20021;-74
2022/04/06 08:10:49;;;;;;;8.02;3.65;;;;;;;;;;5036239;28;20022;-74
2022/04/06 08:13:15;;;;;;;8.82;3.30;;;;;;;;;;5034701;28;20035;-73
2022/04/06 08:15:41;;;;;;;10.23;3.53;;;;;;;;;;5030240;28;20048;-76
2022/04/06 08:18:07;;;;;;;7.95;3.65;;;;;;;;;;5017873;28;20049;-73
2022/04/06 08:20:34;;;;;;;11.30;4.10;;;;;;;;;;5034847;28;20033;-74
2022/04/06 08:23:00;;;;;;;8.45;3.80;;;;;;;;;;5034341;28;20036;-74
2022/04/06 08:25:26;;;;;;;10.25;4.10;;;;;;;;;;5042572;28;20017;-75
2022/04/06 08:27:52;;;;;;;7.20;3.42;;;;;;;;;;5045352;28;20052;-74
2022/04/06 08:30:20;;;;;;;8.02;3.58;;;;;;;;;;5036810;28;20044;-74
2022/04/06 08:32:47;;;;;;;7.65;3.38;;;;;;;;;;5018287;28;20041;-73
2022/04/06 08:35:13;;;;;;;17.02;4.00;;;;;;;;;;5036647;28;20037;-74
2022/04/06 08:37:39;;;;;;;10.55;3.85;;;;;;;;;;5035306;28;20022;-74
2022/04/06 08:40:12;;;;;;;8.20;3.28;;;;;;;;;;5048432;28;20021;-75
2022/04/06 08:42:39;;;;;;;11.00;3.55;;;;;;;;;;5037739;28;20539;-75
2022/04/06 08:45:06;;;;;;;9.20;3.53;;;;;;;;;;5041901;28;20033;-75
2022/04/06 08:47:33;;;;;;;9.20;3.45;;;;;;;;;;5019656;28;20052;-75
2022/04/06 08:50:00;;;;;;;7.30;3.38;;;;;;;;;;5039708;28;20084;-75
2022/04/06 08:52:26;;;;;;;9.68;3.40;;;;;;;;;;5038296;28;20029;-75
2022/04/06 08:54:52;;;;;;;9.23;2.78;;;;;;;;;;5037957;28;20028;-75
2022/04/06 08:57:19;;;;;;;8.48;2.70;;;;;;;;;;5036038;28;20029;-75
2022/04/06 08:59:49;;;;;;;8.15;2.90;;;;;;;;;;5014033;28;20068;-75
2022/04/06 09:02:19;;;;;;;8.80;3.88;;;;;;;;;;5030297;28;20040;-75
2022/04/06 09:04:54;;;;;;;15.43;8.20;;;;;;;;;;5047298;28;20032;-75
2022/04/06 09:07:25;;;;;;;13.52;4.65;;;;;;;;;;5043206;28;20053;-75
2022/04/06 09:09:52;;;;;;;9.18;3.00;;;;;;;;;;5047739;28;20024;-75
2022/04/06 09:12:20;;;;;;;7.68;2.78;;;;;;;;;;5042378;28;20029;-75
2022/04/06 09:14:47;;;;;;;8.98;2.75;;;;;;;;;;5046382;28;20033;-76
2022/04/06 09:17:19;;;;;;;8.15;2.90;;;;;;;;;;5045513;28;20032;-75
2022/04/06 09:19:49;;;;;;;8.60;3.60;;;;;;;;;;5026929;28;20041;-74
2022/04/06 09:22:16;;;;;;;11.63;3.70;;;;;;;;;;5028259;28;20052;-75
2022/04/06 09:24:42;;;;;;;7.85;3.00;;;;;;;;;;5030185;28;20116;-75
2022/04/06 09:27:08;;;;;;;9.27;3.60;;;;;;;;;;5048019;28;20037;-75
2022/04/06 09:29:35;;;;;;;9.23;3.05;;;;;;;;;;5028221;28;20029;-75
2022/04/06 09:32:10;;;;;;;11.95;3.30;;;;;;;;;;5044496;28;20040;-74
2022/04/06 09:34:37;;;;;;;8.73;3.15;;;;;;;;;;5024745;28;20044;-74
2022/04/06 09:37:29;;;;;;;10.57;3.90;;;;;;;;;;5043781;28;20033;-75
2022/04/06 09:39:58;;;;;;;8.38;3.45;;;;;;;;;;5045929;28;20029;-74
2022/04/06 09:42:26;;;;;;;12.13;3.50;;;;;;;;;;5043399;28;20033;-74
2022/04/06 09:47:39;;;;;;;12.60;4.00;;;;;;;;;;5044987;28;20029;-74
2022/04/06 09:50:17;;;;;;;14.77;3.70;;;;;;;;;;5037520;28;20067;-74
2022/04/06 09:52:44;;;;;;;12.32;4.03;;;;;;;;;;5032122;28;20473;-75
2022/04/06 09:55:12;;;;;;;9.70;4.05;;;;;;;;;;5029638;28;20235;-76
2022/04/06 09:57:42;;;;;;;12.02;3.85;;;;;;;;;;5029761;28;20509;-75
2022/04/06 10:00:11;;;;;;;11.73;6.90;;;;;;;;;;5011361;28;20033;-75
2022/04/06 10:02:39;;;;;;;11.07;5.60;;;;;;;;;;5012087;28;20364;-75
2022/04/06 10:05:06;;;;;;;16.10;5.57;;;;;;;;;;5029908;28;20537;-75
2022/04/06 10:07:33;;;;;;;12.20;4.20;;;;;;;;;;5028170;28;20213;-75
2022/04/06 10:10:00;;;;;;;9.80;3.83;;;;;;;;;;5028751;28;20030;-74
2022/04/06 10:12:26;;;;;;;11.35;4.28;;;;;;;;;;5011199;28;20053;-74
2022/04/06 10:14:53;;;;;;;10.40;4.78;;;;;;;;;;5027029;28;20036;-74
2022/04/06 10:17:21;;;;;;;10.05;4.20;;;;;;;;;;5028243;28;20322;-74
2022/04/06 10:19:52;;;;;;;11.38;4.20;;;;;;;;;;5009269;28;20036;-74
2022/04/06 10:22:28;;;;;;;8.52;4.18;;;;;;;;;;5027981;28;20047;-77
2022/04/06 10:25:12;;;;;;;27.52;5.65;;;;;;;;;;5027036;28;20518;-74
2022/04/06 10:27:47;;;;;;;8.93;4.72;;;;;;;;;;5028936;28;20032;-75
2022/04/06 10:30:19;;;;;;;11.27;4.78;;;;;;;;;;5028458;28;20021;-75
2022/04/06 10:32:46;;;;;;;12.45;4.90;;;;;;;;;;5029645;28;20209;-75
2022/04/06 10:35:26;;;;;;;10.30;4.60;;;;;;;;;;5027953;28;20033;-75
2022/04/06 10:38:00;;;;;;;10.82;5.05;;;;;;;;;;5029281;28;20021;-75
2022/04/06 10:40:42;;;;;;;12.30;4.50;;;;;;;;;;5045165;28;20362;-74
2022/04/06 10:43:50;;;;;;;8.52;4.18;;;;;;;;;;5009442;28;20045;-75
2022/04/06 10:46:19;;;;;;;12.55;5.22;;;;;;;;;;5028813;28;20030;-75
2022/04/06 10:49:06;;;;;;;10.48;4.53;;;;;;;;;;5027784;28;20031;-74
2022/04/06 10:51:37;;;;;;;10.20;4.35;;;;;;;;;;5028329;28;20041;-75
2022/04/06 10:54:13;;;;;;;12.23;4.32;;;;;;;;;;5028558;28;20036;-75
2022/04/06 10:56:52;;;;;;;9.80;4.28;;;;;;;;;;5009203;28;20068;-75
2022/04/06 10:59:23;;;;;;;10.02;3.90;;;;;;;;;;5028424;28;20036;-75
2022/04/06 11:02:14;;;;;;;12.38;4.15;;;;;;;;;;5034894;28;20371;-74
2022/04/06 11:04:40;;;;;;;8.15;3.40;;;;;;;;;;5030129;28;20040;-74
2022/04/06 11:07:08;;;;;;;11.40;3.85;;;;;;;;;;5029461;28;20471;-73
2022/04/06 11:12:24;;;;;;;8.80;3.53;;;;;;;;;;5031690;28;20041;-74
2022/04/06 11:15:10;;;;;;;10.82;3.75;;;;;;;;;;5032956;28;20037;-75
2022/04/06 11:17:38;;;;;;;9.27;3.70;;;;;;;;;;5029955;28;20387;-74
2022/04/06 11:20:16;;;;;;;8.57;3.60;;;;;;;;;;5033788;28;20025;-74
2022/04/06 11:22:50;;;;;;;11.10;5.57;;;;;;;;;;5028413;28;20025;-74
2022/04/06 11:25:18;;;;;;;12.57;7.22;;;;;;;;;;5029001;28;20470;-74
2022/04/06 11:27:46;;;;;;;7.45;3.38;;;;;;;;;;5028613;28;20030;-74
2022/04/06 11:30:17;;;;;;;10.18;3.55;;;;;;;;;;5033368;28;20032;-76
2022/04/06 11:32:57;;;;;;;9.25;3.78;;;;;;;;;;5028595;28;20025;-75
2022/04/06 11:35:34;;;;;;;9.23;3.40;;;;;;;;;;5028666;28;20032;-75
2022/04/06 11:38:02;;;;;;;8.65;3.15;;;;;;;;;;5030035;28;20629;-76
2022/04/06 11:40:29;;;;;;;8.13;3.10;;;;;;;;;;5033820;28;20030;-75
2022/04/06 11:43:04;;;;;;;9.27;3.20;;;;;;;;;;5034768;28;20036;-75
2022/04/06 11:45:33;;;;;;;10.32;3.60;;;;;;;;;;5017143;28;20048;-74
2022/04/06 11:48:00;;;;;;;7.97;3.15;;;;;;;;;;5030752;28;20036;-73
2022/04/06 11:50:30;;;;;;;8.23;3.10;;;;;;;;;;5031164;28;20064;-75
2022/04/06 11:53:06;;;;;;;5.15;2.15;;;;;;;;;;5028978;28;20355;-75
2022/04/06 11:55:55;;;;;;;6.78;2.30;;;;;;;;;;5030292;28;20045;-75
2022/04/06 11:58:40;;;;;;;6.00;2.22;;;;;;;;;;5028999;28;20030;-75
2022/04/06 12:01:18;;;;;;;9.00;2.28;;;;;;;;;;5029484;28;20026;-75
2022/04/06 12:03:45;;;;;;;7.07;2.15;;;;;;;;;;5031487;28;20056;-74
2022/04/06 12:06:14;;;;;;;7.45;2.20;;;;;;;;;;5031076;28;20025;-76
2022/04/06 12:08:43;;;;;;;7.70;1.98;;;;;;;;;;5030928;28;20107;-75
2022/04/06 12:11:08;;;;;;;4.65;1.88;;;;;;;;;;5031049;28;20492;-74
2022/04/06 12:13:40;;;;;;;5.53;2.10;;;;;;;;;;5030917;28;20120;-74
2022/04/06 12:16:07;;;;;;;5.57;1.90;;;;;;;;;;5011867;28;20041;-74
2022/04/06 12:18:34;;;;;;;4.75;2.08;;;;;;;;;;5030869;28;20486;-75
2022/04/06 12:21:00;;;;;;;6.43;1.63;;;;;;;;;;5030651;28;20029;-74
2022/04/06 12:23:27;;;;;;;4.90;1.90;;;;;;;;;;5031420;28;20410;-75
2022/04/06 12:25:56;;;;;;;5.63;1.92;;;;;;;;;;5031315;28;20029;-74
2022/04/06 12:28:22;;;;;;;5.47;2.03;;;;;;;;;;5028801;28;20475;-75
2022/04/06 12:31:03;;;;;;;6.55;1.77;;;;;;;;;;5031830;28;20032;-75
2022/04/06 12:33:47;;;;;;;3.78;1.75;;;;;;;;;;5013513;28;20033;-74
2022/04/06 12:36:14;;;;;;;5.43;2.08;;;;;;;;;;5030415;28;20048;-75
2022/04/06 12:38:42;;;;;;;6.35;1.75;;;;;;;;;;5014704;28;20037;-74
2022/04/06 12:41:11;;;;;;;7.07;1.88;;;;;;;;;;5031016;28;20485;-74
2022/04/06 12:43:45;;;;;;;7.38;3.30;;;;;;;;;;5030342;28;20036;-73
2022/04/06 12:46:12;;;;;;;20.83;12.75;;;;;;;;;;5029446;28;20021;-75
2022/04/06 12:48:38;;;;;;;5.53;2.25;;;;;;;;;;5030761;28;20025;-75
2022/04/06 12:51:18;;;;;;;4.90;1.80;;;;;;;;;;5030056;28;20036;-74
2022/04/06 12:53:48;;;;;;;6.35;1.85;;;;;;;;;;5025249;28;20390;-75
2022/04/06 12:56:15;;;;;;;4.45;1.75;;;;;;;;;;5030611;28;20029;-75
2022/04/06 12:58:41;;;;;;;6.45;2.10;;;;;;;;;;5030799;28;20470;-75
2022/04/06 13:01:11;;;;;;;5.00;2.00;;;;;;;;;;5012897;28;20108;-74
2022/04/06 13:03:38;;;;;;;5.38;2.40;;;;;;;;;;5012837;28;20048;-74
2022/04/06 13:06:03;;;;;;;5.55;1.65;;;;;;;;;;5030734;28;20037;-74
2022/04/06 13:08:29;;;;;;;4.50;1.70;;;;;;;;;;5033731;28;20057;-79
2022/04/06 13:11:02;;;;;;;6.57;1.85;;;;;;;;;;5032251;28;20060;-69
2022/04/06 13:13:28;;;;;;;6.43;1.75;;;;;;;;;;5030732;28;20478;-74
2022/04/06 13:15:53;;;;;;;7.70;2.00;;;;;;;;;;5032918;28;20064;-71
2022/04/06 13:18:19;;;;;;;8.20;1.90;;;;;;;;;;5031744;28;20049;-74
2022/04/06 13:20:45;;;;;;;7.20;2.20;;;;;;;;;;5030683;28;20032;-74
2022/04/06 13:23:11;;;;;;;8.57;1.90;;;;;;;;;;5029112;28;20478;-74
2022/04/06 13:25:42;;;;;;;5.13;1.90;;;;;;;;;;5029963;28;20056;-75
2022/04/06 13:28:08;;;;;;;5.35;2.10;;;;;;;;;;5025098;28;20021;-74
2022/04/06 13:30:34;;;;;;;8.13;2.38;;;;;;;;;;5029746;28;20444;-74
2022/04/06 13:33:08;;;;;;;8.43;3.22;;;;;;;;;;5030558;28;20057;-74
2022/04/06 13:35:34;;;;;;;7.72;2.30;;;;;;;;;;5030060;28;20113;-75
2022/04/06 13:38:00;;;;;;;6.43;1.67;;;;;;;;;;5032641;28;20509;-74
2022/04/06 13:40:26;;;;;;;4.35;1.75;;;;;;;;;;5034323;28;20033;-74
2022/04/06 13:42:53;;;;;;;6.65;2.00;;;;;;;;;;5029197;28;20036;-74
2022/04/06 13:45:18;;;;;;;3.83;1.80;;;;;;;;;;5028781;28;20025;-74
2022/04/06 13:47:44;;;;;;;4.57;1.80;;;;;;;;;;5029907;28;20064;-74
2022/04/06 13:50:10;;;;;;;2.33;1.60;;;;;;;;;;5029684;28;20049;-74
2022/04/06 13:52:39;;;;;;;4.45;1.45;;;;;;;;;;5028026;28;20033;-74
2022/04/06 13:55:05;;;;;;;6.55;1.58;;;;;;;;;;5029332;28;20026;-74
2022/04/06 13:57:32;;;;;;;4.28;1.42;;;;;;;;;;5028292;28;20509;-74
2022/04/06 13:59:58;;;;;;;4.90;1.48;;;;;;;;;;5028521;28;20033;-74
2022/04/06 14:02:24;;;;;;;3.70;1.40;;;;;;;;;;5027660;28;20109;-73
2022/04/06 14:04:50;;;;;;;2.90;1.30;;;;;;;;;;5027798;28;20021;-73
2022/04/06 14:07:16;;;;;;;3.33;1.65;;;;;;;;;;5027516;28;20562;-73
2022/04/06 14:09:42;;;;;;;1.70;1.20;;;;;;;;;;5027857;28;20045;-75
2022/04/06 14:12:10;;;;;;;2.25;1.45;;;;;;;;;;5027744;28;20123;-73
2022/04/06 14:14:36;;;;;;;2.00;1.33;;;;;;;;;;5028022;28;20029;-74
2022/04/06 14:17:02;;;;;;;2.58;1.33;;;;;;;;;;5028982;28;20057;-73
2022/04/06 14:19:28;;;;;;;3.47;1.45;;;;;;;;;;5029132;28;20044;-72
2022/04/06 14:21:53;;;;;;;2.88;1.48;;;;;;;;;;5028962;28;20382;-74
2022/04/06 14:24:20;;;;;;;3.55;1.40;;;;;;;;;;5029269;28;20045;-72
2022/04/06 14:26:46;;;;;;;6.15;1.40;;;;;;;;;;5029097;28;20277;-74
2022/04/06 14:29:12;;;;;;;5.78;1.50;;;;;;;;;;5029152;28;20037;-74
2022/04/06 14:31:40;;;;;;;2.65;1.20;;;;;;;;;;5029606;28;20025;-73
2022/04/06 14:34:06;;;;;;;4.22;1.23;;;;;;;;;;5011463;28;20072;-73
2022/04/06 14:36:35;;;;;;;2.85;1.40;;;;;;;;;;5030911;28;20029;-74
2022/04/06 14:39:01;;;;;;;2.08;1.60;;;;;;;;;;5036231;28;20350;-73
2022/04/06 14:41:27;;;;;;;4.28;1.60;;;;;;;;;;5050235;28;20025;-73
2022/04/06 14:43:53;;;;;;;2.90;1.70;;;;;;;;;;5035498;28;20032;-73
2022/04/06 14:46:22;;;;;;;3.75;1.50;;;;;;;;;;5048320;28;20422;-73
2022/04/06 14:48:48;;;;;;;5.15;1.42;;;;;;;;;;5033931;28;20025;-74
2022/04/06 14:51:14;;;;;;;2.67;1.52;;;;;;;;;;5028210;28;20080;-74